Time;durP1;ratioP1;P1;durP2;ratioP2;P2;SDS_P1;SDS_P2;PMS_P1;PMS_P2;Temp;Humidity;BMP_temperature;BMP_pressure;BME280_temperature;BME280_humidity;BME280_pressure;Samples;Min_cycle;Max_cycle;Signal;HPM_P1;HPM_P2
2021/05/27 00:00:49;;;;;;;22.87;14.90;;;;;;;16.04;100.00;94605.13;10406108;28;21041;-76
2021/05/27 00:05:49;;;;;;;29.98;18.33;;;;;;;15.94;100.00;94616.25;10406496;28;20496;-76
2021/05/27 00:10:50;;;;;;;25.97;17.37;;;;;;;15.89;100.00;94615.28;10406780;28;20032;-76
2021/05/27 00:15:50;;;;;;;26.33;16.63;;;;;;;15.91;100.00;94628.50;10406268;28;20029;-77
2021/05/27 00:20:50;;;;;;;26.23;17.05;;;;;;;15.94;100.00;94617.03;10404795;28;20476;-76
2021/05/27 00:25:51;;;;;;;24.83;16.93;;;;;;;15.97;100.00;94611.00;10406125;28;20049;-76
2021/05/27 00:30:51;;;;;;;23.30;16.00;;;;;;;16.02;100.00;94612.81;10406405;28;20075;-76
2021/05/27 00:35:51;;;;;;;24.50;16.47;;;;;;;15.89;100.00;94607.16;10403856;28;20461;-76
2021/05/27 00:40:52;;;;;;;22.27;16.77;;;;;;;15.86;100.00;94623.22;10405327;28;20056;-76
2021/05/27 00:45:52;;;;;;;30.30;17.35;;;;;;;15.88;100.00;94613.66;10404020;28;20025;-76
2021/05/27 00:50:53;;;;;;;24.70;18.73;;;;;;;15.93;100.00;94617.38;10403691;28;20068;-76
2021/05/27 00:55:57;;;;;;;29.50;19.50;;;;;;;15.98;100.00;94619.94;10402255;28;20029;-75
2021/05/27 01:00:57;;;;;;;33.40;19.67;;;;;;;16.08;100.00;94616.19;10404068;28;20035;-76
2021/05/27 01:05:58;;;;;;;32.73;21.43;;;;;;;16.17;100.00;94625.97;10403431;28;20029;-76
2021/05/27 01:10:58;;;;;;;38.97;21.50;;;;;;;16.23;100.00;94613.84;10404726;28;20037;-77
2021/05/27 01:16:00;;;;;;;30.65;21.75;;;;;;;16.33;100.00;94601.16;10404517;28;20038;-76
2021/05/27 01:21:00;;;;;;;29.27;20.75;;;;;;;16.33;100.00;94596.50;10404438;28;20747;-77
2021/05/27 01:26:03;;;;;;;29.40;21.67;;;;;;;16.45;100.00;94597.81;10404116;28;20046;-77
2021/05/27 01:31:06;;;;;;;31.20;20.00;;;;;;;16.37;100.00;94593.97;10403973;28;20802;-77
2021/05/27 01:36:06;;;;;;;32.38;18.48;;;;;;;16.35;100.00;94585.34;10403441;28;20515;-75
2021/05/27 01:41:06;;;;;;;26.25;18.92;;;;;;;16.25;100.00;94580.22;10403983;28;20039;-76
2021/05/27 01:46:07;;;;;;;30.40;19.73;;;;;;;16.20;100.00;94573.00;10403893;28;20036;-76
2021/05/27 01:51:07;;;;;;;28.63;18.00;;;;;;;16.18;100.00;94573.31;10402878;28;20029;-76
2021/05/27 01:56:08;;;;;;;25.65;18.17;;;;;;;16.12;100.00;94592.75;10405500;28;20065;-76
2021/05/27 02:01:08;;;;;;;31.03;20.93;;;;;;;16.14;100.00;94591.31;10443776;28;20032;-76
2021/05/27 02:06:09;;;;;;;29.55;19.77;;;;;;;16.19;100.00;94593.91;10443332;28;20980;-76
2021/05/27 02:11:09;;;;;;;31.00;18.75;;;;;;;16.06;100.00;94597.47;10442397;28;20040;-76
2021/05/27 02:16:09;;;;;;;31.00;19.27;;;;;;;16.03;100.00;94593.50;10443141;28;20029;-76
2021/05/27 02:21:10;;;;;;;25.60;18.23;;;;;;;15.94;100.00;94586.44;10409517;28;20037;-76
2021/05/27 02:26:10;;;;;;;37.90;16.37;;;;;;;15.73;100.00;94595.06;10401308;28;20135;-76
2021/05/27 02:31:11;;;;;;;24.65;16.92;;;;;;;15.81;100.00;94604.34;10400640;28;20539;-76
2021/05/27 02:36:11;;;;;;;21.23;15.35;;;;;;;15.85;100.00;94598.03;10400920;28;20052;-76
2021/05/27 02:41:12;;;;;;;24.08;15.82;;;;;;;15.94;100.00;94591.88;10401182;28;20116;-76
2021/05/27 02:46:13;;;;;;;25.45;16.27;;;;;;;16.00;100.00;94604.16;10401271;28;20021;-77
2021/05/27 02:51:13;;;;;;;22.50;16.48;;;;;;;16.05;100.00;94594.00;10399567;28;20056;-76
2021/05/27 02:56:13;;;;;;;36.73;16.23;;;;;;;15.99;100.00;94583.59;10399981;28;20033;-76
2021/05/27 03:01:14;;;;;;;20.90;14.80;;;;;;;16.09;100.00;94572.50;10400001;28;20279;-77
2021/05/27 03:06:15;;;;;;;19.23;14.90;;;;;;;16.14;100.00;94577.75;10400828;28;20029;-76
2021/05/27 03:11:15;;;;;;;19.88;14.55;;;;;;;16.09;100.00;94587.94;10399998;28;20848;-77
2021/05/27 03:16:15;;;;;;;21.73;13.57;;;;;;;16.08;100.00;94583.66;10400166;28;20034;-76
2021/05/27 03:21:16;;;;;;;22.07;13.93;;;;;;;16.05;100.00;94595.91;10401619;28;20034;-76
2021/05/27 03:26:16;;;;;;;22.13;13.03;;;;;;;15.95;100.00;94586.13;10411360;28;20402;-76
2021/05/27 03:31:18;;;;;;;21.10;13.70;;;;;;;16.06;100.00;94586.63;10417817;28;20041;-82
2021/05/27 03:36:19;;;;;;;16.17;11.50;;;;;;;16.06;100.00;94587.47;10419625;28;20115;-81
2021/05/27 03:41:19;;;;;;;15.60;10.90;;;;;;;16.04;100.00;94597.81;10419678;28;20436;-83
2021/05/27 03:46:20;;;;;;;15.23;11.43;;;;;;;16.14;100.00;94606.78;10419227;28;20021;-81
2021/05/27 03:51:20;;;;;;;14.43;10.43;;;;;;;16.17;100.00;94600.72;10419483;28;20021;-82
2021/05/27 03:56:21;;;;;;;20.92;10.50;;;;;;;16.24;100.00;94595.66;10417202;28;20132;-82
2021/05/27 04:01:21;;;;;;;13.07;9.63;;;;;;;16.21;100.00;94583.56;10423291;28;20543;-82
2021/05/27 04:11:41;;;;;;;14.65;9.93;;;;;;;16.29;100.00;94589.31;10445603;28;20835;-81
2021/05/27 04:16:41;;;;;;;18.73;10.15;;;;;;;16.29;100.00;94583.91;10416706;28;20120;-81
2021/05/27 04:21:42;;;;;;;16.65;10.15;;;;;;;16.38;100.00;94587.41;10413622;28;20029;-75
2021/05/27 04:26:42;;;;;;;11.90;9.50;;;;;;;16.44;100.00;94585.38;10411200;28;20123;-75
2021/05/27 04:31:43;;;;;;;13.07;9.63;;;;;;;16.73;100.00;94590.25;10405403;28;20033;-75
2021/05/27 04:36:43;;;;;;;30.77;11.68;;;;;;;17.01;100.00;94588.09;10405567;28;20300;-75
2021/05/27 04:41:43;;;;;;;21.73;11.17;;;;;;;17.19;100.00;94599.78;10405685;28;20040;-76
2021/05/27 04:46:44;;;;;;;19.93;11.10;;;;;;;17.41;100.00;94604.28;10405052;28;20028;-76
2021/05/27 04:51:44;;;;;;;16.17;10.53;;;;;;;17.53;100.00;94598.19;10404532;28;20032;-75
2021/05/27 04:56:44;;;;;;;21.83;11.90;;;;;;;17.60;100.00;94603.13;10433152;28;20408;-75
2021/05/27 05:01:45;;;;;;;18.80;11.80;;;;;;;17.81;100.00;94603.28;10445596;28;20431;-75
2021/05/27 05:06:47;;;;;;;25.97;15.97;;;;;;;17.81;100.00;94608.72;10445603;28;20412;-76
2021/05/27 05:11:47;;;;;;;26.30;16.20;;;;;;;17.77;100.00;94602.31;10445332;28;20593;-75
2021/05/27 05:16:47;;;;;;;26.50;16.27;;;;;;;17.93;100.00;94595.28;10443131;28;20033;-75
2021/05/27 05:21:48;;;;;;;32.17;21.40;;;;;;;17.87;100.00;94596.53;10444660;28;20039;-75
2021/05/27 05:26:48;;;;;;;34.85;24.48;;;;;;;18.16;100.00;94592.34;10406001;28;1120101;-75
2021/05/27 05:31:49;;;;;;;29.08;19.27;;;;;;;18.41;100.00;94596.09;10446221;28;20120;-75
2021/05/27 05:36:49;;;;;;;28.10;15.70;;;;;;;18.69;100.00;94603.81;10446293;28;20028;-76
2021/05/27 05:41:49;;;;;;;25.60;13.60;;;;;;;19.55;100.00;94600.88;10445897;28;20942;-76
2021/05/27 05:46:50;;;;;;;21.73;11.20;;;;;;;20.13;100.00;94601.00;10445192;28;20384;-76
2021/05/27 05:51:50;;;;;;;30.37;12.43;;;;;;;20.32;100.00;94600.47;10445319;28;20033;-76
2021/05/27 05:56:50;;;;;;;13.97;9.40;;;;;;;21.09;100.00;94604.50;10445333;28;20032;-76
2021/05/27 06:01:51;;;;;;;15.27;9.87;;;;;;;21.88;100.00;94602.50;10431523;28;20684;-77
2021/05/27 06:06:51;;;;;;;16.57;10.07;;;;;;;22.35;100.00;94597.16;10405008;28;20029;-77
2021/05/27 06:11:52;;;;;;;16.80;9.23;;;;;;;22.67;100.00;94599.88;10403123;28;20794;-76
2021/05/27 06:16:53;;;;;;;15.55;9.85;;;;;;;23.54;98.32;94599.94;10404347;28;20276;-77
2021/05/27 06:21:53;;;;;;;20.55;10.52;;;;;;;23.93;90.44;94581.91;10404649;28;20029;-76
2021/05/27 06:26:54;;;;;;;17.20;8.20;;;;;;;23.89;82.50;94577.16;10403713;28;20819;-77
2021/05/27 06:31:54;;;;;;;13.98;8.30;;;;;;;23.84;77.09;94580.16;10403662;28;20069;-77
2021/05/27 06:36:54;;;;;;;17.30;8.73;;;;;;;23.21;84.12;94582.00;10404148;28;20040;-77
2021/05/27 06:41:56;;;;;;;20.53;10.63;;;;;;;23.06;87.66;94577.31;10404199;28;20279;-77
2021/05/27 06:46:57;;;;;;;18.80;10.90;;;;;;;23.52;83.81;94574.03;10404043;28;20485;-77
2021/05/27 06:52:00;;;;;;;17.70;11.48;;;;;;;23.71;84.12;94562.28;10404174;28;20033;-77
2021/05/27 06:57:00;;;;;;;20.52;11.10;;;;;;;24.86;75.72;94556.06;10401681;28;20029;-77
2021/05/27 07:02:01;;;;;;;16.80;10.07;;;;;;;26.01;65.57;94556.00;10403424;28;20446;-77
2021/05/27 07:07:01;;;;;;;13.53;9.07;;;;;;;27.11;63.33;94552.72;10403095;28;20541;-77
2021/05/27 07:12:01;;;;;;;15.23;7.70;;;;;;;27.07;57.71;94546.38;10403435;28;20064;-77
2021/05/27 07:17:04;;;;;;;14.07;7.13;;;;;;;27.91;54.60;94551.13;10402281;28;20029;-77
2021/05/27 07:22:05;;;;;;;16.13;8.18;;;;;;;28.19;50.96;94551.63;10403092;28;20029;-77
2021/05/27 07:27:05;;;;;;;16.40;7.90;;;;;;;27.70;54.16;94551.84;10402528;28;20049;-77
2021/05/27 07:32:06;;;;;;;10.47;6.77;;;;;;;27.82;55.05;94547.94;10403003;28;20378;-77
2021/05/27 07:37:06;;;;;;;11.68;7.15;;;;;;;29.51;52.97;94527.91;10402880;28;20291;-77
2021/05/27 07:42:07;;;;;;;11.45;6.53;;;;;;;29.73;46.55;94528.59;10402685;28;20045;-77
2021/05/27 07:47:07;;;;;;;7.90;5.40;;;;;;;29.89;45.85;94535.69;10402109;28;20030;-77
2021/05/27 07:52:08;;;;;;;10.97;5.07;;;;;;;30.35;44.55;94520.75;10402822;28;20033;-77
2021/05/27 07:57:08;;;;;;;8.07;5.33;;;;;;;31.79;45.56;94519.47;10402916;28;20091;-77
2021/05/27 08:02:08;;;;;;;9.50;4.33;;;;;;;32.67;40.55;94526.19;10402168;28;20276;-77
2021/05/27 08:07:10;;;;;;;6.83;4.10;;;;;;;31.95;40.24;94520.88;10403089;28;20530;-78
2021/05/27 08:12:10;;;;;;;6.47;4.32;;;;;;;32.22;38.92;94518.13;10433924;28;20079;-78
2021/05/27 08:17:11;;;;;;;8.93;4.07;;;;;;;32.42;38.35;94509.91;10448644;28;20091;-78
2021/05/27 08:22:12;;;;;;;7.22;3.55;;;;;;;32.91;40.09;94506.75;10449626;28;20037;-78
2021/05/27 08:27:12;;;;;;;5.60;3.33;;;;;;;33.65;36.72;94499.44;10449326;28;20045;-78
2021/05/27 08:32:13;;;;;;;5.77;3.07;;;;;;;34.17;35.28;94487.59;10448296;28;20033;-78
2021/05/27 08:37:13;;;;;;;4.93;3.20;;;;;;;35.00;34.61;94484.84;10447804;28;20518;-78
2021/05/27 08:42:15;;;;;;;11.55;4.07;;;;;;;33.63;34.91;94471.22;10449752;28;20048;-78
2021/05/27 08:47:17;;;;;;;9.50;3.90;;;;;;;33.85;34.53;94479.94;10449534;28;20462;-78
2021/05/27 08:52:17;;;;;;;6.07;3.88;;;;;;;35.11;33.78;94471.44;10449685;28;20037;-78
2021/05/27 08:57:18;;;;;;;6.07;3.17;;;;;;;35.21;34.17;94461.97;10449337;28;20037;-78
2021/05/27 09:02:18;;;;;;;8.75;4.10;;;;;;;35.95;33.08;94469.91;10448628;28;20047;-78
2021/05/27 09:07:38;;;;;;;14.00;3.72;;;;;;;34.98;33.21;94465.75;10448050;28;20037;-78
2021/05/27 09:12:39;;;;;;;5.20;3.25;;;;;;;34.43;35.15;94459.94;10447057;28;20112;-78
2021/05/27 09:17:52;;;;;;;7.93;4.03;;;;;;;34.32;35.20;94462.19;10448471;28;20807;-76
2021/05/27 09:23:14;;;;;;;6.45;4.13;;;;;;;33.84;35.90;94450.47;10447315;28;20454;-77
2021/05/27 09:28:23;;;;;;;6.88;4.10;;;;;;;33.90;37.91;94441.19;10447565;28;20078;-77
2021/05/27 09:33:31;;;;;;;9.25;4.55;;;;;;;33.10;37.02;94446.75;10423185;28;20412;-77
2021/05/27 09:38:34;;;;;;;7.07;3.25;;;;;;;34.13;36.11;94427.53;10406082;28;20033;-77
2021/05/27 09:43:35;;;;;;;8.07;3.75;;;;;;;34.46;37.20;94419.22;10406103;28;20113;-78
2021/05/27 09:48:36;;;;;;;9.07;3.67;;;;;;;33.54;38.50;94419.63;10405423;28;20033;-78
2021/05/27 09:53:36;;;;;;;5.60;3.63;;;;;;;31.56;40.26;94419.34;10405571;28;20112;-77
2021/05/27 09:58:50;;;;;;;8.50;4.18;;;;;;;30.09;43.89;94408.50;10405342;28;20136;-77
2021/05/27 10:03:51;;;;;;;7.43;2.85;;;;;;;32.78;39.32;94411.16;10405352;28;20035;-77
2021/05/27 10:08:56;;;;;;;4.85;2.60;;;;;;;33.55;36.12;94415.63;10404752;28;20041;-77
2021/05/27 10:13:58;;;;;;;6.18;2.90;;;;;;;33.70;33.92;94401.38;10404394;28;20033;-77
2021/05/27 10:18:59;;;;;;;7.00;2.33;;;;;;;33.09;32.94;94397.84;10442951;28;20480;-77
2021/05/27 10:24:03;;;;;;;4.67;1.80;;;;;;;33.60;32.04;94391.25;10444230;28;20031;-77
2021/05/27 10:29:04;;;;;;;8.43;2.22;;;;;;;34.68;31.30;94383.19;10445641;28;21036;-77
2021/05/27 10:34:05;;;;;;;4.20;2.38;;;;;;;35.46;31.05;94393.44;10444567;28;20040;-77
2021/05/27 10:39:05;;;;;;;7.70;2.90;;;;;;;33.33;33.68;94390.22;10444730;28;20025;-77
2021/05/27 10:44:09;;;;;;;4.47;2.40;;;;;;;31.88;34.48;94391.13;10444916;28;20736;-77
2021/05/27 10:49:10;;;;;;;6.93;2.08;;;;;;;30.88;33.31;94390.38;10444583;28;20039;-77
2021/05/27 10:54:27;;;;;;;5.78;2.83;;;;;;;29.18;36.65;94379.69;10443033;28;20028;-77
2021/05/27 10:59:34;;;;;;;10.97;3.17;;;;;;;27.51;41.51;94400.34;10444507;28;20040;-77
2021/05/27 11:04:39;;;;;;;8.75;3.45;;;;;;;26.33;45.54;94399.34;10444145;28;20059;-77
2021/05/27 11:09:40;;;;;;;6.50;3.53;;;;;;;25.81;48.32;94402.03;10444311;28;20067;-77
2021/05/27 11:14:46;;;;;;;7.88;3.20;;;;;;;25.11;47.01;94401.66;10442805;28;20036;-77
2021/05/27 11:19:58;;;;;;;6.50;3.22;;;;;;;25.23;47.00;94384.13;10443888;28;20472;-77
2021/05/27 11:25:17;;;;;;;6.68;2.70;;;;;;;25.38;42.89;94366.66;10443712;28;20048;-76
2021/05/27 11:30:41;;;;;;;9.13;3.42;;;;;;;25.30;46.70;94366.91;10444065;28;20043;-77
2021/05/27 11:35:47;;;;;;;9.60;4.57;;;;;;;24.57;58.52;94370.72;10442525;28;20122;-77
2021/05/27 11:40:50;;;;;;;14.90;4.68;;;;;;;24.52;64.04;94366.34;10447650;28;20032;-77
2021/05/27 11:45:53;;;;;;;8.45;4.50;;;;;;;24.57;74.29;94356.97;10450093;28;20025;-76
2021/05/27 11:51:06;;;;;;;6.53;4.90;;;;;;;23.74;76.75;94376.91;10451798;28;20056;-77
2021/05/27 11:56:07;;;;;;;10.20;4.50;;;;;;;23.16;80.38;94384.91;10451275;28;20029;-76
2021/05/27 12:01:18;;;;;;;7.13;4.80;;;;;;;22.79;75.82;94376.31;10451214;28;20071;-77
2021/05/27 12:06:19;;;;;;;13.20;4.93;;;;;;;22.58;78.55;94391.13;10450774;28;20925;-76
2021/05/27 12:11:32;;;;;;;9.93;5.17;;;;;;;22.41;79.63;94411.50;10450682;28;20029;-77
2021/05/27 12:16:37;;;;;;;10.88;5.30;;;;;;;22.07;83.35;94422.00;10450541;28;20033;-77
2021/05/27 12:21:53;;;;;;;7.18;4.85;;;;;;;21.72;78.50;94436.41;10450386;28;20033;-76
2021/05/27 12:26:55;;;;;;;7.68;4.60;;;;;;;21.70;73.67;94435.97;10449826;28;20056;-77
2021/05/27 12:31:56;;;;;;;9.10;4.60;;;;;;;21.64;70.80;94432.69;10449903;28;20037;-77
2021/05/27 12:37:01;;;;;;;6.15;4.60;;;;;;;21.76;69.21;94431.03;10449133;28;20090;-77
2021/05/27 12:42:04;;;;;;;6.70;4.47;;;;;;;21.63;69.32;94424.84;10449527;28;20033;-77
2021/05/27 12:47:21;;;;;;;6.22;4.63;;;;;;;21.55;72.19;94431.28;10447130;28;20025;-76
2021/05/27 12:52:39;;;;;;;7.38;4.68;;;;;;;21.20;87.28;94424.47;10448633;28;20029;-77
2021/05/27 12:57:52;;;;;;;;;;;;;;;21.16;90.14;94401.72;10449450;28;20029;-77
2021/05/27 13:03:07;;;;;;;8.93;5.40;;;;;;;21.18;94.79;94391.22;10448291;28;20003;-77
2021/05/27 13:08:07;;;;;;;8.90;5.82;;;;;;;21.28;99.25;94387.97;10447986;28;20029;-77
2021/05/27 13:13:08;;;;;;;11.80;5.90;;;;;;;20.76;100.00;94377.97;10447638;28;20029;-77
2021/05/27 13:18:10;;;;;;;9.63;5.82;;;;;;;20.87;100.00;94372.81;10447686;28;20036;-76
2021/05/27 13:23:31;;;;;;;15.25;7.30;;;;;;;20.58;100.00;94377.41;10447511;28;20032;-77
2021/05/27 13:28:32;;;;;;;11.52;5.78;;;;;;;20.17;100.00;94380.13;10447180;28;20061;-77
2021/05/27 13:33:32;;;;;;;10.63;6.17;;;;;;;19.74;100.00;94373.28;10446223;28;20850;-76
2021/05/27 13:38:33;;;;;;;11.95;7.65;;;;;;;19.59;100.00;94370.09;10446378;28;20389;-76
2021/05/27 13:43:35;;;;;;;10.13;7.25;;;;;;;19.36;100.00;94382.56;10446747;28;20104;-76
2021/05/27 13:48:35;;;;;;;12.23;7.90;;;;;;;19.20;100.00;94387.84;10446864;28;20031;-76
2021/05/27 13:53:37;;;;;;;16.75;7.32;;;;;;;19.04;100.00;94398.59;10445341;28;20036;-76
2021/05/27 13:58:38;;;;;;;8.88;6.95;;;;;;;18.89;100.00;94391.84;10446548;28;20486;-76
2021/05/27 14:03:42;;;;;;;12.67;6.37;;;;;;;18.76;100.00;94397.19;10446034;28;20021;-76
2021/05/27 14:08:44;;;;;;;11.23;5.97;;;;;;;18.63;100.00;94403.72;10445606;28;20029;-76
2021/05/27 14:13:44;;;;;;;8.35;5.60;;;;;;;18.52;100.00;94425.09;10445701;28;20061;-77
2021/05/27 14:18:45;;;;;;;8.43;5.30;;;;;;;18.15;100.00;94422.13;10445045;28;20104;-76
2021/05/27 14:23:45;;;;;;;11.00;6.00;;;;;;;17.63;100.00;94433.22;10414286;28;20022;-76
2021/05/27 14:28:45;;;;;;;8.00;6.10;;;;;;;17.48;100.00;94453.56;10408270;28;20112;-77
2021/05/27 14:33:46;;;;;;;9.13;6.37;;;;;;;17.46;100.00;94472.09;10416383;28;20037;-76
2021/05/27 14:38:46;;;;;;;11.65;7.75;;;;;;;17.52;100.00;94496.03;10441218;28;20374;-77
2021/05/27 14:43:47;;;;;;;11.57;7.40;;;;;;;17.57;100.00;94505.97;10421199;28;20025;-77
2021/05/27 14:48:47;;;;;;;17.35;9.85;;;;;;;17.28;100.00;94512.88;10414446;28;20132;-77
2021/05/27 14:53:47;;;;;;;13.80;9.70;;;;;;;17.32;100.00;94524.69;10418234;28;20063;-77
2021/05/27 14:58:48;;;;;;;12.60;9.60;;;;;;;17.13;100.00;94521.50;10417205;28;20041;-77
2021/05/27 15:03:48;;;;;;;22.53;11.83;;;;;;;17.10;100.00;94528.38;10415246;28;20135;-76
2021/05/27 15:08:49;;;;;;;18.70;12.00;;;;;;;17.16;100.00;94502.63;10440866;28;20021;-76
2021/05/27 15:13:49;;;;;;;17.80;10.73;;;;;;;16.91;100.00;94502.34;10443642;28;20065;-76
2021/05/27 15:18:49;;;;;;;22.33;14.20;;;;;;;16.99;100.00;94479.03;10448303;28;20538;-76
2021/05/27 15:23:50;;;;;;;14.77;8.43;;;;;;;16.87;100.00;94457.94;10450257;28;20024;-76
2021/05/27 15:28:50;;;;;;;10.82;7.63;;;;;;;16.31;100.00;94448.78;10451225;28;20690;-76
2021/05/27 15:33:51;;;;;;;18.50;9.53;;;;;;;16.23;100.00;94431.38;10447816;28;20086;-76
2021/05/27 15:38:51;;;;;;;16.77;10.37;;;;;;;16.25;100.00;94431.06;10431371;28;20555;-75
2021/05/27 15:43:51;;;;;;;15.35;10.77;;;;;;;16.14;100.00;94420.50;10430701;28;20312;-76
2021/05/27 15:48:52;;;;;;;20.35;11.07;;;;;;;15.81;100.00;94426.34;10411580;28;20536;-76
2021/05/27 15:53:53;;;;;;;20.38;11.32;;;;;;;15.81;100.00;94450.72;10420367;28;20562;-76
2021/05/27 15:58:53;;;;;;;18.13;10.23;;;;;;;15.96;100.00;94429.72;10444202;28;20025;-75
2021/05/27 16:03:53;;;;;;;18.13;8.43;;;;;;;15.88;100.00;94439.44;10449275;28;20031;-76
2021/05/27 16:08:54;;;;;;;9.63;6.97;;;;;;;15.87;100.00;94433.19;10433107;28;21259;-76
2021/05/27 16:13:54;;;;;;;11.90;6.60;;;;;;;15.91;100.00;94429.84;10440751;28;20033;-76
2021/05/27 16:18:55;;;;;;;13.07;7.05;;;;;;;15.91;100.00;94433.38;10443714;28;20380;-77
2021/05/27 16:23:55;;;;;;;11.80;6.57;;;;;;;16.01;100.00;94422.25;10445807;28;20421;-77
2021/05/27 16:28:56;;;;;;;9.73;6.33;;;;;;;16.06;100.00;94419.38;10440010;28;20045;-78
2021/05/27 16:34:07;;;;;;;14.30;7.47;;;;;;;16.17;100.00;94406.34;10444003;28;20291;-77
2021/05/27 16:39:08;;;;;;;12.85;7.50;;;;;;;16.27;100.00;94393.56;10439546;28;20355;-77
2021/05/27 16:44:09;;;;;;;14.07;7.67;;;;;;;16.32;100.00;94382.59;10445490;28;20025;-77
2021/05/27 16:49:09;;;;;;;12.88;7.93;;;;;;;16.34;100.00;94375.72;10443946;28;20071;-77
2021/05/27 16:54:10;;;;;;;10.77;6.43;;;;;;;16.39;100.00;94369.34;10439787;28;20091;-78
2021/05/27 16:59:28;;;;;;;12.17;6.37;;;;;;;16.43;100.00;94367.59;10441237;28;20060;-77
2021/05/27 17:04:28;;;;;;;11.05;7.00;;;;;;;16.50;100.00;94351.63;10441028;28;20046;-78
2021/05/27 17:09:29;;;;;;;9.55;7.10;;;;;;;16.65;100.00;94347.63;10439389;28;20771;-77
2021/05/27 17:14:31;;;;;;;17.23;8.33;;;;;;;16.60;100.00;94352.44;10436965;28;20033;-77
2021/05/27 17:19:32;;;;;;;10.60;7.78;;;;;;;16.34;100.00;94359.47;10445408;28;20017;-77
2021/05/27 17:24:32;;;;;;;7.40;5.50;;;;;;;16.22;100.00;94349.22;10436930;28;20057;-77
2021/05/27 17:29:32;;;;;;;9.52;6.25;;;;;;;16.27;100.00;94353.72;10437638;28;20033;-77
2021/05/27 17:34:33;;;;;;;10.07;7.10;;;;;;;16.36;100.00;94348.28;10443525;28;20461;-78
2021/05/27 17:39:33;;;;;;;10.63;6.75;;;;;;;16.43;100.00;94340.47;10442472;28;20279;-77
2021/05/27 17:44:35;;;;;;;29.60;8.40;;;;;;;16.30;100.00;94341.41;10429975;28;20443;-76
2021/05/27 17:49:35;;;;;;;14.82;7.07;;;;;;;16.33;100.00;94346.22;10406785;28;20509;-77
2021/05/27 17:54:36;;;;;;;14.53;7.23;;;;;;;16.18;100.00;94337.41;10406025;28;20140;-77
2021/05/27 17:59:37;;;;;;;13.48;5.90;;;;;;;16.08;100.00;94337.75;10419987;28;20044;-77
2021/05/27 18:04:37;;;;;;;10.40;6.88;;;;;;;16.08;100.00;94348.59;10421393;28;20031;-77
2021/05/27 18:09:37;;;;;;;8.73;6.30;;;;;;;16.10;100.00;94349.06;10409115;28;20052;-76
2021/05/27 18:14:38;;;;;;;7.47;5.57;;;;;;;16.18;100.00;94345.56;10402699;28;20037;-76
2021/05/27 18:19:39;;;;;;;7.57;5.72;;;;;;;16.18;100.00;94342.84;10406789;28;20033;-76
2021/05/27 18:24:39;;;;;;;13.07;6.70;;;;;;;16.25;100.00;94353.22;10412327;28;20082;-77
2021/05/27 18:29:39;;;;;;;11.70;7.93;;;;;;;15.78;100.00;94342.94;10432215;28;20041;-77
2021/05/27 18:34:40;;;;;;;13.68;7.40;;;;;;;15.62;100.00;94358.81;10411075;28;20052;-76
2021/05/27 18:39:41;;;;;;;12.00;7.35;;;;;;;15.44;100.00;94370.72;10436089;28;20122;-76
2021/05/27 18:44:41;;;;;;;13.80;8.03;;;;;;;15.43;100.00;94398.91;10411170;28;20021;-77
2021/05/27 18:49:42;;;;;;;12.88;7.15;;;;;;;15.56;100.00;94416.97;10438574;28;20290;-76
2021/05/27 18:54:42;;;;;;;10.50;6.63;;;;;;;15.64;100.00;94429.75;10413808;28;20116;-77
2021/05/27 18:59:42;;;;;;;10.90;6.10;;;;;;;15.60;100.00;94430.66;10403255;28;20279;-76
2021/05/27 19:04:44;;;;;;;15.13;5.90;;;;;;;15.54;100.00;94446.25;10431253;28;20024;-77
2021/05/27 19:09:45;;;;;;;11.82;6.32;;;;;;;15.58;100.00;94457.28;10411249;28;20094;-77
2021/05/27 19:14:45;;;;;;;10.37;6.07;;;;;;;15.67;100.00;94471.66;10443655;28;20090;-77
2021/05/27 19:19:46;;;;;;;15.30;5.57;;;;;;;15.67;100.00;94477.06;10439553;28;20416;-77
2021/05/27 19:24:46;;;;;;;12.90;5.97;;;;;;;15.92;100.00;94493.78;10440047;28;20295;-77
2021/05/27 19:29:46;;;;;;;6.70;5.43;;;;;;;15.99;100.00;94483.28;10442420;28;20036;-81
2021/05/27 19:34:47;;;;;;;13.73;5.30;;;;;;;16.17;100.00;94498.53;10427986;28;20032;-77
2021/05/27 19:39:48;;;;;;;10.20;4.67;;;;;;;16.14;100.00;94507.25;10401636;28;20037;-78
2021/05/27 19:44:48;;;;;;;8.18;5.88;;;;;;;16.10;100.00;94511.72;10440734;28;20032;-77
2021/05/27 19:49:48;;;;;;;9.13;5.33;;;;;;;16.11;100.00;94517.94;10443203;28;20028;-80
2021/05/27 19:54:49;;;;;;;9.40;5.82;;;;;;;16.05;100.00;94528.94;10436581;28;20089;-81
2021/05/27 19:59:49;;;;;;;13.00;7.10;;;;;;;16.05;100.00;94518.09;10400415;28;20021;-81
2021/05/27 20:04:49;;;;;;;8.60;6.63;;;;;;;15.82;100.00;94527.38;10406159;28;20033;-80
2021/05/27 20:09:50;;;;;;;12.43;7.67;;;;;;;15.51;100.00;94547.09;10415995;28;20128;-81
2021/05/27 20:14:50;;;;;;;20.52;9.82;;;;;;;15.58;100.00;94506.84;10409604;28;20030;-81
2021/05/27 20:19:51;;;;;;;13.10;8.03;;;;;;;15.60;100.00;94510.03;10416871;28;20037;-80
2021/05/27 20:24:52;;;;;;;16.63;8.85;;;;;;;15.59;100.00;94500.31;10448307;28;20802;-80
2021/05/27 20:29:52;;;;;;;17.27;8.55;;;;;;;15.66;100.00;94492.53;10445073;28;20025;-80
2021/05/27 20:34:53;;;;;;;12.20;7.80;;;;;;;15.55;100.00;94472.25;10450003;28;20021;-80
2021/05/27 20:39:53;;;;;;;9.37;6.87;;;;;;;15.35;100.00;94479.00;10447849;28;20459;-80
2021/05/27 20:44:54;;;;;;;10.13;6.25;;;;;;;15.18;100.00;94468.84;10407554;28;20083;-79
2021/05/27 20:49:54;;;;;;;11.95;6.00;;;;;;;15.20;100.00;94466.63;10433257;28;20033;-80
2021/05/27 20:54:55;;;;;;;9.50;7.07;;;;;;;15.35;100.00;94481.72;10438210;28;20116;-80
2021/05/27 20:59:55;;;;;;;20.13;7.03;;;;;;;15.08;100.00;94480.72;10435037;28;20116;-81
2021/05/27 21:04:55;;;;;;;14.60;8.30;;;;;;;14.93;100.00;94494.59;10437048;28;20021;-80
2021/05/27 21:09:56;;;;;;;14.03;8.33;;;;;;;15.02;100.00;94485.44;10411008;28;20024;-80
2021/05/27 21:14:56;;;;;;;12.13;8.13;;;;;;;15.22;100.00;94459.00;10445641;28;20341;-81
2021/05/27 21:19:58;;;;;;;11.23;8.70;;;;;;;15.36;100.00;94473.28;10415158;28;20029;-80
2021/05/27 21:24:58;;;;;;;13.48;9.73;;;;;;;15.25;100.00;94482.75;10405959;28;20722;-80
2021/05/27 21:29:59;;;;;;;12.27;8.47;;;;;;;15.26;100.00;94516.81;10432510;28;20037;-80
2021/05/27 21:35:00;;;;;;;21.05;11.75;;;;;;;15.19;100.00;94511.84;10447730;28;20033;-81
2021/05/27 21:40:01;;;;;;;14.63;10.35;;;;;;;15.32;100.00;94512.91;10445869;28;20037;-81
2021/05/27 21:45:02;;;;;;;16.88;10.93;;;;;;;15.37;100.00;94517.38;10404692;28;20512;-80
2021/05/27 21:50:04;;;;;;;21.05;13.85;;;;;;;15.31;100.00;94514.00;10425699;28;20044;-81
2021/05/27 21:55:05;;;;;;;23.33;13.02;;;;;;;15.14;100.00;94514.69;10446337;28;20774;-80
2021/05/27 22:00:12;;;;;;;23.17;13.48;;;;;;;15.03;100.00;94516.03;10447044;28;20036;-80
2021/05/27 22:05:12;;;;;;;23.95;13.85;;;;;;;14.82;100.00;94508.38;10427330;28;20075;-81
2021/05/27 22:10:13;;;;;;;16.77;12.30;;;;;;;14.80;100.00;94509.78;10405118;28;20044;-80
2021/05/27 22:15:13;;;;;;;25.70;14.60;;;;;;;14.64;100.00;94499.31;10405218;28;20029;-80
2021/05/27 22:20:14;;;;;;;22.23;15.48;;;;;;;14.52;100.00;94499.78;10403965;28;20029;-80
2021/05/27 22:25:14;;;;;;;21.48;14.20;;;;;;;14.54;100.00;94499.53;10402969;28;20124;-80
2021/05/27 22:30:15;;;;;;;24.80;15.38;;;;;;;14.67;100.00;94512.22;10404200;28;20068;-80
2021/05/27 22:35:16;;;;;;;27.30;15.77;;;;;;;14.47;100.00;94516.16;10402390;28;20029;-81
2021/05/27 22:40:17;;;;;;;24.20;15.47;;;;;;;14.49;100.00;94515.84;10403705;28;20037;-85
2021/05/27 22:45:17;;;;;;;31.02;15.50;;;;;;;14.47;100.00;94518.84;10407176;28;20562;-85
2021/05/27 22:50:20;;;;;;;28.30;15.48;;;;;;;14.44;100.00;94505.94;10407894;28;20102;-85
2021/05/27 22:55:23;;;;;;;20.88;14.15;;;;;;;14.40;100.00;94507.66;10407986;28;20033;-86
2021/05/27 23:00:24;;;;;;;26.67;15.60;;;;;;;14.27;100.00;94524.69;10409468;28;20040;-85